Time;durP1;ratioP1;P1;durP2;ratioP2;P2;SDS_P1;SDS_P2;PMS_P1;PMS_P2;Temp;Humidity;BMP_temperature;BMP_pressure;BME280_temperature;BME280_humidity;BME280_pressure;Samples;Min_cycle;Max_cycle;Signal;HPM_P1;HPM_P2
2023/12/03 00:01:16;;;;;;;16.97;9.80;;;;;;;;;;4982693;28;20030;-77
2023/12/03 00:03:41;;;;;;;21.43;10.03;;;;;;;;;;4982114;28;20043;-77
2023/12/03 00:06:06;;;;;;;20.23;11.37;;;;;;;;;;4981308;28;20077;-77
2023/12/03 00:08:32;;;;;;;18.33;10.40;;;;;;;;;;4997921;28;20121;-77
2023/12/03 00:10:57;;;;;;;20.17;10.93;;;;;;;;;;4979440;28;20645;-77
2023/12/03 00:13:22;;;;;;;19.23;11.13;;;;;;;;;;4981138;28;20042;-78
2023/12/03 00:15:47;;;;;;;20.00;11.07;;;;;;;;;;4983289;28;20050;-77
2023/12/03 00:18:12;;;;;;;21.07;11.70;;;;;;;;;;5004639;28;20038;-77
2023/12/03 00:20:37;;;;;;;20.37;11.87;;;;;;;;;;4981572;28;20038;-78
2023/12/03 00:23:03;;;;;;;21.60;11.87;;;;;;;;;;4979850;28;20116;-78
2023/12/03 00:25:28;;;;;;;22.60;12.17;;;;;;;;;;4981359;28;20185;-78
2023/12/03 00:27:53;;;;;;;23.17;12.60;;;;;;;;;;4984869;28;20484;-78
2023/12/03 00:30:19;;;;;;;23.50;12.23;;;;;;;;;;4982411;28;20027;-78
2023/12/03 00:32:44;;;;;;;21.67;13.53;;;;;;;;;;4980946;28;20475;-77
2023/12/03 00:35:09;;;;;;;21.57;12.07;;;;;;;;;;4983470;28;20495;-78
2023/12/03 00:37:34;;;;;;;22.53;12.43;;;;;;;;;;4993324;28;20084;-78
2023/12/03 00:39:59;;;;;;;22.60;12.27;;;;;;;;;;4981373;28;20061;-78
2023/12/03 00:42:24;;;;;;;22.47;12.53;;;;;;;;;;4987935;28;20117;-77
2023/12/03 00:44:50;;;;;;;21.33;12.33;;;;;;;;;;4982156;28;20038;-77
2023/12/03 00:47:15;;;;;;;22.57;12.43;;;;;;;;;;5000075;28;20111;-77
2023/12/03 00:49:40;;;;;;;23.43;11.70;;;;;;;;;;4980074;28;20440;-77
2023/12/03 00:52:05;;;;;;;21.87;12.23;;;;;;;;;;4979643;28;20031;-78
2023/12/03 00:54:30;;;;;;;25.10;13.40;;;;;;;;;;4997673;28;20031;-77
2023/12/03 00:56:56;;;;;;;23.50;12.07;;;;;;;;;;4984160;28;20068;-77
2023/12/03 00:59:21;;;;;;;24.57;12.73;;;;;;;;;;4981881;28;20084;-77
2023/12/03 01:01:46;;;;;;;21.57;11.63;;;;;;;;;;4979979;28;20023;-77
2023/12/03 01:04:11;;;;;;;22.37;12.20;;;;;;;;;;4979701;28;20031;-77
2023/12/03 01:06:37;;;;;;;23.00;11.77;;;;;;;;;;4985527;28;20054;-77
2023/12/03 01:09:02;;;;;;;22.63;11.80;;;;;;;;;;4981799;28;20038;-77
2023/12/03 01:11:28;;;;;;;24.23;12.10;;;;;;;;;;4985361;28;20053;-77
2023/12/03 01:13:53;;;;;;;25.40;12.90;;;;;;;;;;4983278;28;20037;-77
2023/12/03 01:16:18;;;;;;;25.30;12.97;;;;;;;;;;5001417;28;20035;-77
2023/12/03 01:18:43;;;;;;;21.63;11.70;;;;;;;;;;4979453;28;20077;-77
2023/12/03 01:21:09;;;;;;;22.40;12.97;;;;;;;;;;4980103;28;20035;-77
2023/12/03 01:23:34;;;;;;;25.80;12.60;;;;;;;;;;4978645;28;20030;-77
2023/12/03 01:25:59;;;;;;;22.87;12.20;;;;;;;;;;4982395;28;20038;-77
2023/12/03 01:28:24;;;;;;;23.77;12.27;;;;;;;;;;5011204;28;20022;-77
2023/12/03 01:30:49;;;;;;;22.93;12.03;;;;;;;;;;4980941;28;20424;-77
2023/12/03 01:33:15;;;;;;;25.37;13.50;;;;;;;;;;4993731;28;20034;-77
2023/12/03 01:35:40;;;;;;;24.97;12.93;;;;;;;;;;4978626;28;20062;-77
2023/12/03 01:38:05;;;;;;;23.37;12.57;;;;;;;;;;4984290;28;20084;-77
2023/12/03 01:40:30;;;;;;;27.37;13.73;;;;;;;;;;4981353;28;20041;-77
2023/12/03 01:42:55;;;;;;;27.47;14.17;;;;;;;;;;4978634;28;20035;-77
2023/12/03 01:45:21;;;;;;;25.90;13.10;;;;;;;;;;4980285;28;20525;-77
2023/12/03 01:47:46;;;;;;;25.57;13.00;;;;;;;;;;4989238;28;20098;-77
2023/12/03 01:50:12;;;;;;;25.40;13.20;;;;;;;;;;4982549;28;20030;-78
2023/12/03 01:52:37;;;;;;;25.00;13.93;;;;;;;;;;4993322;28;20414;-77
2023/12/03 01:55:03;;;;;;;27.60;14.00;;;;;;;;;;4981965;28;20037;-77
2023/12/03 01:57:29;;;;;;;26.13;13.93;;;;;;;;;;4999343;28;20510;-77
2023/12/03 01:59:54;;;;;;;28.87;14.47;;;;;;;;;;4977796;28;20035;-77
2023/12/03 02:02:20;;;;;;;27.07;14.30;;;;;;;;;;5008302;28;20039;-77
2023/12/03 02:04:45;;;;;;;28.47;14.80;;;;;;;;;;4996096;28;20034;-77
2023/12/03 02:07:10;;;;;;;28.37;14.50;;;;;;;;;;4981322;28;20062;-77
2023/12/03 02:09:36;;;;;;;30.40;16.67;;;;;;;;;;5003269;28;20775;-77
2023/12/03 02:12:02;;;;;;;32.03;16.37;;;;;;;;;;4987659;28;20030;-77
2023/12/03 02:14:27;;;;;;;26.20;14.80;;;;;;;;;;4980900;28;20452;-77
2023/12/03 02:16:52;;;;;;;31.77;14.70;;;;;;;;;;4986496;28;20030;-77
2023/12/03 02:19:17;;;;;;;29.47;14.93;;;;;;;;;;4980514;28;20046;-77
2023/12/03 02:21:42;;;;;;;29.20;15.17;;;;;;;;;;4980867;28;20132;-77
2023/12/03 02:24:08;;;;;;;29.57;14.53;;;;;;;;;;5000076;28;20473;-77
2023/12/03 02:26:33;;;;;;;27.10;14.07;;;;;;;;;;5015127;28;20096;-76
2023/12/03 02:28:58;;;;;;;26.63;14.13;;;;;;;;;;4977204;28;20471;-77
2023/12/03 02:31:25;;;;;;;29.70;15.73;;;;;;;;;;4991283;28;20056;-78
2023/12/03 02:33:58;;;;;;;30.80;15.93;;;;;;;;;;4978157;28;20030;-78
2023/12/03 02:36:23;;;;;;;28.57;14.50;;;;;;;;;;4990125;28;20050;-78
2023/12/03 02:38:48;;;;;;;30.70;15.73;;;;;;;;;;4997391;28;20112;-77
2023/12/03 02:41:13;;;;;;;27.10;14.73;;;;;;;;;;4982453;28;20121;-77
2023/12/03 02:43:38;;;;;;;28.70;15.93;;;;;;;;;;4985907;28;20022;-77
2023/12/03 02:46:04;;;;;;;31.17;15.83;;;;;;;;;;4982190;28;20027;-77
2023/12/03 02:48:29;;;;;;;30.20;15.70;;;;;;;;;;4989758;28;20033;-77
2023/12/03 02:50:54;;;;;;;30.30;16.50;;;;;;;;;;5007336;28;20109;-77
2023/12/03 02:53:19;;;;;;;29.50;15.97;;;;;;;;;;4982209;28;20042;-77
2023/12/03 02:55:44;;;;;;;31.03;15.13;;;;;;;;;;4982118;28;20029;-78
2023/12/03 02:58:09;;;;;;;31.27;16.33;;;;;;;;;;4994545;28;20035;-77
2023/12/03 03:00:35;;;;;;;28.63;14.80;;;;;;;;;;4981722;28;20042;-78
2023/12/03 03:03:00;;;;;;;29.60;15.20;;;;;;;;;;4983921;28;20045;-77
2023/12/03 03:05:25;;;;;;;27.17;14.53;;;;;;;;;;4982504;28;20041;-78
2023/12/03 03:07:50;;;;;;;29.67;14.73;;;;;;;;;;4998365;28;20052;-77
2023/12/03 03:10:15;;;;;;;29.23;15.70;;;;;;;;;;4982293;28;20038;-77
2023/12/03 03:12:41;;;;;;;27.27;15.47;;;;;;;;;;4981302;28;20030;-77
2023/12/03 03:15:06;;;;;;;26.40;15.23;;;;;;;;;;4982519;28;20031;-77
2023/12/03 03:17:31;;;;;;;30.80;16.07;;;;;;;;;;4983278;28;20058;-77
2023/12/03 03:19:56;;;;;;;31.70;16.23;;;;;;;;;;4992577;28;20104;-77
2023/12/03 03:22:21;;;;;;;29.33;14.17;;;;;;;;;;4981995;28;20429;-77
2023/12/03 03:24:47;;;;;;;27.47;14.20;;;;;;;;;;5000952;28;20034;-77
2023/12/03 03:27:12;;;;;;;29.33;15.00;;;;;;;;;;4980563;28;20084;-77
2023/12/03 03:29:37;;;;;;;27.37;14.37;;;;;;;;;;4980689;28;20106;-77
2023/12/03 03:32:03;;;;;;;28.30;14.63;;;;;;;;;;4983129;28;20035;-77
2023/12/03 03:34:28;;;;;;;30.00;16.13;;;;;;;;;;4995117;28;20034;-77
2023/12/03 03:36:53;;;;;;;30.03;16.17;;;;;;;;;;4994910;28;20110;-77
2023/12/03 03:39:18;;;;;;;26.33;14.27;;;;;;;;;;4995465;28;20519;-77
2023/12/03 03:41:44;;;;;;;28.07;14.83;;;;;;;;;;4980222;28;20041;-77
2023/12/03 03:44:09;;;;;;;32.00;15.67;;;;;;;;;;4988295;28;20030;-76
2023/12/03 03:46:34;;;;;;;27.80;14.37;;;;;;;;;;4995073;28;20506;-77
2023/12/03 03:48:59;;;;;;;29.77;15.20;;;;;;;;;;4987504;28;20038;-77
2023/12/03 03:51:25;;;;;;;27.40;15.63;;;;;;;;;;4982334;28;20486;-77
2023/12/03 03:53:50;;;;;;;25.87;14.77;;;;;;;;;;4976913;28;20437;-77
2023/12/03 03:56:16;;;;;;;25.27;14.17;;;;;;;;;;4982473;28;20026;-77
2023/12/03 03:58:41;;;;;;;27.33;14.50;;;;;;;;;;4986682;28;20042;-77
2023/12/03 04:01:07;;;;;;;26.07;13.93;;;;;;;;;;4983041;28;20042;-77
2023/12/03 04:03:33;;;;;;;27.80;13.67;;;;;;;;;;4982711;28;20449;-77
2023/12/03 04:06:04;;;;;;;30.30;16.10;;;;;;;;;;4978663;28;20437;-76
2023/12/03 04:08:30;;;;;;;26.37;15.30;;;;;;;;;;4992933;28;20035;-77
2023/12/03 04:10:55;;;;;;;26.23;13.83;;;;;;;;;;4979886;28;20357;-77
2023/12/03 04:13:20;;;;;;;29.10;14.87;;;;;;;;;;4982551;28;20114;-77
2023/12/03 04:15:45;;;;;;;29.47;15.60;;;;;;;;;;4981418;28;20036;-77
2023/12/03 04:18:10;;;;;;;25.30;14.43;;;;;;;;;;4996907;28;20491;-77
2023/12/03 04:20:36;;;;;;;25.90;14.40;;;;;;;;;;4995228;28;20042;-77
2023/12/03 04:23:01;;;;;;;25.83;14.40;;;;;;;;;;4979774;28;20069;-77
2023/12/03 04:25:26;;;;;;;25.90;13.90;;;;;;;;;;4983618;28;20034;-77
2023/12/03 04:27:51;;;;;;;26.90;14.77;;;;;;;;;;4988696;28;20410;-78
2023/12/03 04:30:16;;;;;;;24.30;13.37;;;;;;;;;;4983963;28;20109;-78
2023/12/03 04:32:41;;;;;;;25.83;13.87;;;;;;;;;;5024536;28;20023;-78
2023/12/03 04:35:08;;;;;;;25.70;14.47;;;;;;;;;;4984206;28;20034;-78
2023/12/03 04:37:33;;;;;;;29.17;15.33;;;;;;;;;;4994137;28;20096;-77
2023/12/03 04:39:58;;;;;;;24.80;13.67;;;;;;;;;;4984180;28;20042;-78
2023/12/03 04:42:24;;;;;;;31.10;16.07;;;;;;;;;;5004757;28;20030;-77
2023/12/03 04:44:49;;;;;;;25.60;14.40;;;;;;;;;;4984299;28;20023;-78
2023/12/03 04:47:14;;;;;;;29.70;15.77;;;;;;;;;;4995742;28;20562;-77
2023/12/03 04:49:39;;;;;;;24.70;14.00;;;;;;;;;;4980010;28;20037;-77
2023/12/03 04:52:04;;;;;;;24.23;13.33;;;;;;;;;;4996177;28;20486;-77
2023/12/03 04:54:30;;;;;;;25.87;14.17;;;;;;;;;;4987140;28;20080;-78
2023/12/03 04:56:55;;;;;;;28.57;15.07;;;;;;;;;;4997580;28;20050;-78
2023/12/03 04:59:20;;;;;;;29.43;14.60;;;;;;;;;;4999937;28;20502;-78
2023/12/03 05:01:45;;;;;;;37.00;18.07;;;;;;;;;;5006466;28;20034;-77
2023/12/03 05:04:11;;;;;;;32.70;17.00;;;;;;;;;;4980312;28;20042;-77
2023/12/03 05:06:36;;;;;;;32.53;17.90;;;;;;;;;;4982477;28;20099;-77
2023/12/03 05:09:01;;;;;;;34.57;17.50;;;;;;;;;;4987155;28;20065;-78
2023/12/03 05:11:26;;;;;;;31.17;16.40;;;;;;;;;;4980315;28;20039;-77
2023/12/03 05:13:52;;;;;;;28.50;15.63;;;;;;;;;;4979267;28;20394;-77
2023/12/03 05:16:18;;;;;;;30.10;16.97;;;;;;;;;;4996442;28;20051;-79
2023/12/03 05:18:43;;;;;;;27.93;14.40;;;;;;;;;;4983092;28;20566;-77
2023/12/03 05:21:08;;;;;;;30.43;15.87;;;;;;;;;;4989642;28;20072;-78
2023/12/03 05:23:33;;;;;;;34.00;17.30;;;;;;;;;;5006575;28;20038;-78
2023/12/03 05:25:59;;;;;;;31.63;16.53;;;;;;;;;;4995213;28;20064;-78
2023/12/03 05:28:24;;;;;;;30.43;16.37;;;;;;;;;;4996735;28;20035;-78
2023/12/03 05:30:49;;;;;;;31.30;16.67;;;;;;;;;;4978756;28;20027;-78
2023/12/03 05:33:14;;;;;;;29.37;15.97;;;;;;;;;;4980983;28;20057;-78
2023/12/03 05:35:39;;;;;;;27.60;14.50;;;;;;;;;;4990240;28;20027;-78
2023/12/03 05:38:05;;;;;;;31.07;16.87;;;;;;;;;;4979437;28;20035;-78
2023/12/03 05:40:30;;;;;;;31.97;15.63;;;;;;;;;;4998444;28;20045;-77
2023/12/03 05:42:55;;;;;;;31.20;16.87;;;;;;;;;;4981548;28;20079;-78
2023/12/03 05:45:20;;;;;;;30.00;15.27;;;;;;;;;;4990962;28;20402;-78
2023/12/03 05:47:45;;;;;;;29.37;15.63;;;;;;;;;;4981864;28;20115;-78
2023/12/03 05:50:10;;;;;;;27.10;14.80;;;;;;;;;;4981482;28;20058;-78
2023/12/03 05:52:36;;;;;;;31.87;16.23;;;;;;;;;;4981379;28;20023;-78
2023/12/03 05:55:01;;;;;;;27.47;15.73;;;;;;;;;;4978232;28;20039;-78
2023/12/03 05:57:26;;;;;;;30.80;16.27;;;;;;;;;;4984576;28;20042;-78
2023/12/03 05:59:53;;;;;;;28.63;14.80;;;;;;;;;;4978167;28;20042;-78
2023/12/03 06:02:18;;;;;;;26.33;14.33;;;;;;;;;;4988334;28;20042;-78
2023/12/03 06:04:44;;;;;;;27.93;15.80;;;;;;;;;;5000246;28;20367;-78
2023/12/03 06:07:09;;;;;;;27.17;14.53;;;;;;;;;;4981283;28;20038;-77
2023/12/03 06:09:35;;;;;;;30.93;16.23;;;;;;;;;;4991553;28;20038;-77
2023/12/03 06:12:00;;;;;;;29.93;15.33;;;;;;;;;;4984061;28;20045;-77
2023/12/03 06:14:26;;;;;;;26.50;14.73;;;;;;;;;;4993357;28;20376;-77
2023/12/03 06:16:51;;;;;;;28.37;13.83;;;;;;;;;;4985059;28;20034;-78
2023/12/03 06:19:17;;;;;;;28.43;14.63;;;;;;;;;;4984460;28;20034;-77
2023/12/03 06:21:42;;;;;;;28.13;15.27;;;;;;;;;;4983925;28;20026;-78
2023/12/03 06:24:07;;;;;;;26.90;14.60;;;;;;;;;;4981138;28;20041;-78
2023/12/03 06:26:32;;;;;;;25.83;13.37;;;;;;;;;;4984139;28;20042;-78
2023/12/03 06:28:57;;;;;;;29.13;15.30;;;;;;;;;;4984395;28;20070;-78
2023/12/03 06:31:22;;;;;;;24.33;13.03;;;;;;;;;;4984148;28;20080;-78
2023/12/03 06:33:48;;;;;;;23.70;13.43;;;;;;;;;;4983735;28;20047;-77
2023/12/03 06:36:13;;;;;;;25.17;13.60;;;;;;;;;;5000102;28;20375;-78
2023/12/03 06:38:38;;;;;;;24.07;12.63;;;;;;;;;;5012355;28;20030;-78
2023/12/03 06:41:03;;;;;;;24.10;13.33;;;;;;;;;;4995578;28;20498;-78
2023/12/03 06:43:29;;;;;;;26.83;13.67;;;;;;;;;;4983536;28;20091;-79
2023/12/03 06:45:54;;;;;;;26.70;14.53;;;;;;;;;;4984138;28;20087;-78
2023/12/03 06:48:21;;;;;;;23.30;13.60;;;;;;;;;;4985664;28;20406;-78
2023/12/03 06:50:46;;;;;;;26.27;13.77;;;;;;;;;;5001932;28;20123;-78
2023/12/03 06:53:11;;;;;;;22.97;12.60;;;;;;;;;;4998428;28;20478;-78
2023/12/03 06:55:36;;;;;;;23.27;12.80;;;;;;;;;;4982417;28;20520;-79
2023/12/03 06:58:01;;;;;;;22.43;11.87;;;;;;;;;;4985593;28;20062;-78
2023/12/03 07:00:27;;;;;;;23.30;12.73;;;;;;;;;;4983921;28;20042;-78
2023/12/03 07:02:52;;;;;;;23.38;13.32;;;;;;;;;;4982425;28;20105;-78
2023/12/03 07:05:17;;;;;;;23.05;12.30;;;;;;;;;;4981378;28;20117;-78
2023/12/03 07:07:43;;;;;;;23.03;12.70;;;;;;;;;;5003536;28;20055;-78
2023/12/03 07:10:08;;;;;;;25.35;13.50;;;;;;;;;;5001542;28;20038;-77
2023/12/03 07:12:33;;;;;;;21.83;11.97;;;;;;;;;;4983892;28;20034;-78
2023/12/03 07:14:58;;;;;;;23.77;12.15;;;;;;;;;;4982127;28;20034;-77
2023/12/03 07:17:23;;;;;;;19.60;10.85;;;;;;;;;;4986311;28;20034;-78
2023/12/03 07:19:49;;;;;;;18.37;10.13;;;;;;;;;;4995761;28;20597;-78
2023/12/03 07:22:14;;;;;;;19.20;9.35;;;;;;;;;;5004830;28;20058;-78
2023/12/03 07:24:39;;;;;;;20.27;9.93;;;;;;;;;;4994749;28;20053;-78
2023/12/03 07:27:05;;;;;;;17.73;9.48;;;;;;;;;;4996565;28;20109;-78
2023/12/03 07:29:30;;;;;;;17.05;9.18;;;;;;;;;;4983651;28;20105;-77
2023/12/03 07:31:55;;;;;;;20.15;10.82;;;;;;;;;;4978417;28;20056;-78
2023/12/03 07:34:20;;;;;;;20.70;11.20;;;;;;;;;;4979988;28;20031;-77
2023/12/03 07:36:45;;;;;;;19.10;10.63;;;;;;;;;;4982699;28;20035;-78
2023/12/03 07:39:11;;;;;;;20.15;11.80;;;;;;;;;;4987959;28;20057;-77
2023/12/03 07:41:36;;;;;;;23.23;12.10;;;;;;;;;;4987858;28;20041;-77
2023/12/03 07:44:01;;;;;;;24.02;12.63;;;;;;;;;;4980754;28;20030;-77
2023/12/03 07:46:26;;;;;;;22.50;11.80;;;;;;;;;;4981631;28;20066;-77
2023/12/03 07:48:52;;;;;;;23.65;12.45;;;;;;;;;;4984196;28;20042;-77
2023/12/03 07:51:17;;;;;;;20.05;10.60;;;;;;;;;;4981960;28;20046;-77
2023/12/03 07:53:42;;;;;;;20.95;11.77;;;;;;;;;;4980367;28;20019;-77
2023/12/03 07:56:08;;;;;;;25.54;14.36;;;;;;;;;;4982802;28;20034;-77
2023/12/03 07:58:34;;;;;;;27.73;15.35;;;;;;;;;;4985687;28;20030;-78
2023/12/03 08:01:00;;;;;;;27.50;14.75;;;;;;;;;;4980188;28;20521;-78
2023/12/03 08:03:25;;;;;;;23.85;13.57;;;;;;;;;;4982354;28;20043;-77
2023/12/03 08:05:50;;;;;;;23.45;13.18;;;;;;;;;;4988533;28;20100;-77
2023/12/03 08:08:16;;;;;;;25.75;14.32;;;;;;;;;;4985509;28;20095;-78
2023/12/03 08:10:41;;;;;;;29.05;15.65;;;;;;;;;;5007378;28;20038;-78
2023/12/03 08:13:06;;;;;;;29.63;15.65;;;;;;;;;;4982662;28;20038;-77
2023/12/03 08:15:31;;;;;;;28.73;16.40;;;;;;;;;;5000917;28;20058;-77
2023/12/03 08:17:56;;;;;;;28.75;16.20;;;;;;;;;;4997547;28;20107;-77
2023/12/03 08:20:21;;;;;;;26.30;14.56;;;;;;;;;;4990433;28;20042;-76
2023/12/03 08:22:47;;;;;;;28.00;15.48;;;;;;;;;;4989078;28;20034;-78
2023/12/03 08:25:12;;;;;;;27.55;14.43;;;;;;;;;;5006063;28;20122;-79
2023/12/03 08:27:37;;;;;;;24.90;14.15;;;;;;;;;;4993080;28;20035;-79
2023/12/03 08:30:02;;;;;;;25.67;14.93;;;;;;;;;;4986554;28;20107;-78
2023/12/03 08:32:27;;;;;;;25.95;13.88;;;;;;;;;;5002811;28;20498;-79
2023/12/03 08:34:53;;;;;;;27.17;14.10;;;;;;;;;;4993989;28;20034;-78
2023/12/03 08:37:18;;;;;;;27.23;14.02;;;;;;;;;;4997812;28;20044;-79
2023/12/03 08:39:44;;;;;;;26.27;14.00;;;;;;;;;;5027659;28;20120;-77
2023/12/03 08:42:09;;;;;;;21.50;12.43;;;;;;;;;;4987467;28;20030;-77
2023/12/03 08:44:34;;;;;;;26.17;14.05;;;;;;;;;;4992534;28;20490;-77
2023/12/03 08:46:59;;;;;;;24.90;14.30;;;;;;;;;;4988731;28;20073;-77
2023/12/03 08:49:25;;;;;;;23.15;13.18;;;;;;;;;;4988405;28;20077;-77
2023/12/03 08:51:50;;;;;;;24.83;14.38;;;;;;;;;;4988821;28;20035;-77
2023/12/03 08:54:15;;;;;;;25.67;13.93;;;;;;;;;;4987003;28;20422;-77
2023/12/03 08:56:41;;;;;;;25.67;12.95;;;;;;;;;;4985622;28;20130;-76
2023/12/03 08:59:06;;;;;;;22.88;12.90;;;;;;;;;;4984070;28;20550;-76
2023/12/03 09:01:32;;;;;;;23.65;13.25;;;;;;;;;;4985212;28;20171;-76
2023/12/03 09:03:58;;;;;;;25.20;14.32;;;;;;;;;;4978396;28;20030;-76
2023/12/03 09:06:23;;;;;;;24.08;13.15;;;;;;;;;;4981093;28;20043;-76
2023/12/03 09:08:48;;;;;;;21.63;12.25;;;;;;;;;;4986934;28;20072;-76
2023/12/03 09:11:13;;;;;;;20.90;12.45;;;;;;;;;;4995179;28;20018;-75
2023/12/03 09:13:38;;;;;;;23.92;13.30;;;;;;;;;;5004576;28;20041;-76
2023/12/03 09:16:04;;;;;;;23.73;13.57;;;;;;;;;;4982533;28;20084;-76
2023/12/03 09:18:29;;;;;;;21.27;12.43;;;;;;;;;;5003740;28;20121;-76
2023/12/03 09:20:54;;;;;;;21.92;12.98;;;;;;;;;;4980147;28;20038;-77
2023/12/03 09:23:19;;;;;;;21.88;11.82;;;;;;;;;;4978595;28;20453;-75
2023/12/03 09:25:45;;;;;;;26.75;14.13;;;;;;;;;;4993556;28;20073;-76
2023/12/03 09:28:10;;;;;;;24.35;13.60;;;;;;;;;;4987481;28;20444;-76
2023/12/03 09:30:35;;;;;;;23.73;12.63;;;;;;;;;;4979543;28;20046;-76
2023/12/03 09:33:01;;;;;;;22.95;12.52;;;;;;;;;;4978946;28;20037;-76
2023/12/03 09:35:29;;;;;;;20.63;11.70;;;;;;;;;;4981301;28;20057;-77
2023/12/03 09:37:54;;;;;;;25.45;14.73;;;;;;;;;;5018300;28;20024;-76
2023/12/03 09:40:19;;;;;;;25.60;14.63;;;;;;;;;;5000797;28;20083;-76
2023/12/03 09:42:46;;;;;;;22.65;12.70;;;;;;;;;;4979184;28;20030;-76
2023/12/03 09:45:12;;;;;;;22.90;12.73;;;;;;;;;;4987011;28;20511;-75
2023/12/03 09:47:37;;;;;;;23.60;13.77;;;;;;;;;;4984769;28;20027;-76
2023/12/03 09:50:04;;;;;;;21.48;11.93;;;;;;;;;;5020682;28;20050;-75
2023/12/03 09:52:31;;;;;;;23.63;14.40;;;;;;;;;;5011883;28;20057;-76
2023/12/03 09:54:58;;;;;;;20.70;11.40;;;;;;;;;;4988714;28;20083;-76
2023/12/03 09:57:24;;;;;;;22.02;12.88;;;;;;;;;;5000413;28;20035;-76
2023/12/03 09:59:51;;;;;;;23.40;12.50;;;;;;;;;;5003403;28;20027;-76
2023/12/03 10:02:19;;;;;;;23.35;13.38;;;;;;;;;;5002415;28;20030;-76
2023/12/03 10:04:44;;;;;;;23.95;12.70;;;;;;;;;;5021532;28;20458;-75
2023/12/03 10:07:09;;;;;;;21.83;12.48;;;;;;;;;;5008070;28;20061;-76
2023/12/03 10:09:34;;;;;;;22.83;12.82;;;;;;;;;;4996774;28;20405;-76
2023/12/03 10:12:02;;;;;;;21.92;11.80;;;;;;;;;;4987892;28;20075;-76
2023/12/03 10:14:28;;;;;;;22.55;13.20;;;;;;;;;;4983752;28;20038;-76
2023/12/03 10:16:53;;;;;;;24.90;13.07;;;;;;;;;;4991048;28;20168;-76
2023/12/03 10:19:26;;;;;;;23.35;13.95;;;;;;;;;;5018589;28;20038;-76
2023/12/03 10:21:51;;;;;;;22.15;13.55;;;;;;;;;;4997427;28;20032;-76
2023/12/03 10:24:17;;;;;;;18.70;11.48;;;;;;;;;;5000895;28;20030;-76
2023/12/03 10:26:52;;;;;;;20.58;12.30;;;;;;;;;;4988414;28;20486;-76
2023/12/03 10:29:23;;;;;;;19.17;10.98;;;;;;;;;;5025059;28;20038;-76
2023/12/03 10:31:49;;;;;;;18.77;10.85;;;;;;;;;;4985755;28;20148;-76
2023/12/03 10:34:15;;;;;;;19.75;11.13;;;;;;;;;;4988192;28;20160;-76
2023/12/03 10:36:42;;;;;;;18.65;10.93;;;;;;;;;;5003686;28;20118;-76
2023/12/03 10:39:07;;;;;;;20.00;11.55;;;;;;;;;;4988080;28;20041;-76
2023/12/03 10:41:33;;;;;;;16.70;9.95;;;;;;;;;;4995925;28;20107;-76
2023/12/03 10:43:58;;;;;;;21.23;12.38;;;;;;;;;;4999524;28;20419;-76
2023/12/03 10:46:23;;;;;;;17.88;11.45;;;;;;;;;;5001425;28;20493;-76
2023/12/03 10:48:49;;;;;;;19.02;11.32;;;;;;;;;;5022604;28;20020;-76
2023/12/03 10:51:14;;;;;;;19.92;10.98;;;;;;;;;;4983812;28;20552;-76
2023/12/03 10:53:39;;;;;;;20.20;12.02;;;;;;;;;;4988680;28;20066;-76
2023/12/03 10:56:05;;;;;;;17.15;10.30;;;;;;;;;;5007211;28;20128;-76
2023/12/03 10:58:31;;;;;;;18.88;11.10;;;;;;;;;;5011935;28;20026;-76
2023/12/03 11:01:15;;;;;;;16.58;9.85;;;;;;;;;;5011512;28;20602;-76
2023/12/03 11:03:47;;;;;;;17.83;10.55;;;;;;;;;;5007702;28;20090;-76
2023/12/03 11:06:14;;;;;;;17.15;10.70;;;;;;;;;;4991304;28;20046;-75
2023/12/03 11:08:39;;;;;;;18.52;10.77;;;;;;;;;;4982970;28;20095;-76
2023/12/03 11:11:05;;;;;;;17.50;11.02;;;;;;;;;;5027959;28;20396;-76
2023/12/03 11:13:30;;;;;;;16.52;10.68;;;;;;;;;;5001914;28;20486;-76
2023/12/03 11:15:56;;;;;;;17.33;10.32;;;;;;;;;;4984722;28;20035;-76
2023/12/03 11:18:23;;;;;;;17.15;9.65;;;;;;;;;;4981568;28;20413;-76
2023/12/03 11:20:50;;;;;;;20.02;12.60;;;;;;;;;;4996125;28;20031;-76
2023/12/03 11:23:34;;;;;;;16.95;10.15;;;;;;;;;;4985139;28;20041;-76
2023/12/03 11:26:13;;;;;;;18.77;11.20;;;;;;;;;;5005409;28;20510;-76
2023/12/03 11:28:55;;;;;;;16.95;11.38;;;;;;;;;;5013228;28;20509;-76
2023/12/03 11:31:20;;;;;;;17.65;10.98;;;;;;;;;;5008140;28;20441;-76
2023/12/03 11:33:55;;;;;;;16.83;9.85;;;;;;;;;;4984406;28;20022;-76
2023/12/03 11:36:32;;;;;;;17.33;10.30;;;;;;;;;;5000255;28;20030;-77
2023/12/03 11:38:58;;;;;;;18.75;11.38;;;;;;;;;;5001262;28;20039;-77
2023/12/03 11:41:23;;;;;;;19.08;11.57;;;;;;;;;;4980308;28;20027;-76
2023/12/03 11:43:48;;;;;;;15.82;9.57;;;;;;;;;;4996891;28;20032;-76
2023/12/03 11:46:13;;;;;;;15.30;10.98;;;;;;;;;;4996922;28;20041;-76
2023/12/03 11:48:39;;;;;;;18.35;10.40;;;;;;;;;;4986710;28;20038;-76
2023/12/03 11:51:04;;;;;;;18.25;10.25;;;;;;;;;;4983022;28;20168;-76
2023/12/03 11:53:43;;;;;;;18.00;11.00;;;;;;;;;;4989552;28;20049;-76
2023/12/03 11:56:08;;;;;;;18.77;11.88;;;;;;;;;;4983346;28;20050;-76
2023/12/03 11:58:34;;;;;;;16.95;10.45;;;;;;;;;;5001025;28;20026;-76
2023/12/03 12:00:59;;;;;;;19.55;10.70;;;;;;;;;;5005561;28;20056;-76
2023/12/03 12:03:25;;;;;;;21.15;12.57;;;;;;;;;;4986804;28;20110;-76
2023/12/03 12:05:51;;;;;;;19.00;11.13;;;;;;;;;;4986492;28;20035;-76
2023/12/03 12:08:17;;;;;;;16.50;10.90;;;;;;;;;;4998061;28;20026;-76
2023/12/03 12:10:42;;;;;;;17.58;11.25;;;;;;;;;;4998086;28;20026;-76
2023/12/03 12:13:07;;;;;;;16.92;10.85;;;;;;;;;;4978938;28;20114;-76
2023/12/03 12:15:32;;;;;;;18.35;10.77;;;;;;;;;;4990418;28;20038;-77
2023/12/03 12:17:58;;;;;;;18.50;10.82;;;;;;;;;;4987558;28;20069;-75
2023/12/03 12:20:23;;;;;;;16.25;11.23;;;;;;;;;;4982680;28;20096;-76
2023/12/03 12:22:49;;;;;;;19.65;12.02;;;;;;;;;;4981908;28;20034;-76
2023/12/03 12:25:15;;;;;;;18.63;11.07;;;;;;;;;;4998023;28;20092;-76
2023/12/03 12:27:40;;;;;;;19.20;10.88;;;;;;;;;;4989137;28;20034;-76
2023/12/03 12:30:06;;;;;;;20.17;11.88;;;;;;;;;;4991124;28;20070;-76
2023/12/03 12:32:31;;;;;;;20.42;12.20;;;;;;;;;;4996057;28;20441;-76
2023/12/03 12:34:59;;;;;;;24.50;12.88;;;;;;;;;;5029024;28;20030;-76
2023/12/03 12:37:24;;;;;;;22.05;13.50;;;;;;;;;;4981937;28;20027;-76
2023/12/03 12:39:50;;;;;;;21.52;13.10;;;;;;;;;;5007640;28;20028;-76
2023/12/03 12:42:22;;;;;;;21.08;13.15;;;;;;;;;;4982390;28;20553;-76
2023/12/03 12:44:47;;;;;;;19.95;11.88;;;;;;;;;;4991217;28;20039;-76
2023/12/03 12:47:12;;;;;;;21.75;12.80;;;;;;;;;;4987018;28;20083;-76
2023/12/03 12:49:40;;;;;;;22.70;13.25;;;;;;;;;;5003364;28;20031;-76
2023/12/03 12:52:08;;;;;;;22.25;13.63;;;;;;;;;;4997635;28;20027;-77
2023/12/03 12:54:43;;;;;;;20.75;12.50;;;;;;;;;;4994442;28;20553;-76
2023/12/03 12:57:09;;;;;;;21.85;11.68;;;;;;;;;;4979019;28;20042;-76
2023/12/03 12:59:34;;;;;;;22.00;12.95;;;;;;;;;;4988081;28;20418;-76
2023/12/03 13:01:59;;;;;;;20.60;12.50;;;;;;;;;;5027385;28;20032;-76
2023/12/03 13:04:24;;;;;;;25.15;13.73;;;;;;;;;;5003255;28;20549;-77
2023/12/03 13:06:49;;;;;;;23.38;14.52;;;;;;;;;;5017259;28;20035;-76
2023/12/03 13:09:18;;;;;;;24.90;13.82;;;;;;;;;;4994190;28;20039;-76
2023/12/03 13:11:43;;;;;;;24.73;14.27;;;;;;;;;;4990505;28;20042;-76
2023/12/03 13:14:08;;;;;;;25.13;15.05;;;;;;;;;;4982878;28;20034;-76
2023/12/03 13:16:33;;;;;;;25.23;14.32;;;;;;;;;;4989579;28;20030;-76
2023/12/03 13:18:58;;;;;;;23.83;13.93;;;;;;;;;;4999169;28;20045;-76
2023/12/03 13:21:23;;;;;;;20.27;12.40;;;;;;;;;;4979115;28;20039;-76
2023/12/03 13:23:49;;;;;;;22.75;14.05;;;;;;;;;;4979750;28;20022;-76
2023/12/03 13:26:14;;;;;;;23.95;14.27;;;;;;;;;;4985956;28;20030;-76
2023/12/03 13:28:39;;;;;;;22.80;12.98;;;;;;;;;;4985352;28;20037;-76
2023/12/03 13:31:04;;;;;;;23.98;14.32;;;;;;;;;;5016656;28;20034;-76
2023/12/03 13:33:29;;;;;;;26.35;14.07;;;;;;;;;;5002734;28;20109;-76
2023/12/03 13:35:55;;;;;;;24.88;14.38;;;;;;;;;;5013541;28;20488;-76
2023/12/03 13:38:20;;;;;;;31.08;15.55;;;;;;;;;;4976563;28;20046;-76
2023/12/03 13:40:45;;;;;;;24.42;13.82;;;;;;;;;;4985982;28;20141;-75
2023/12/03 13:43:10;;;;;;;26.90;15.55;;;;;;;;;;5002058;28;20079;-76
2023/12/03 13:45:35;;;;;;;25.98;15.10;;;;;;;;;;4996655;28;20101;-75
2023/12/03 13:48:00;;;;;;;23.08;13.27;;;;;;;;;;4997295;28;20034;-76
2023/12/03 13:50:26;;;;;;;21.13;12.98;;;;;;;;;;4993734;28;20023;-76
2023/12/03 13:52:51;;;;;;;23.20;13.98;;;;;;;;;;4994146;28;20495;-76
2023/12/03 13:55:17;;;;;;;22.33;13.32;;;;;;;;;;4992707;28;20031;-76
2023/12/03 13:57:42;;;;;;;25.40;15.02;;;;;;;;;;5020716;28;20087;-76
2023/12/03 14:00:07;;;;;;;20.65;12.70;;;;;;;;;;4999634;28;20035;-76
2023/12/03 14:02:37;;;;;;;22.33;12.85;;;;;;;;;;4987266;28;20035;-76
2023/12/03 14:05:02;;;;;;;24.08;14.35;;;;;;;;;;5007741;28;20038;-76
2023/12/03 14:07:27;;;;;;;26.17;14.88;;;;;;;;;;4980249;28;20121;-75
2023/12/03 14:09:53;;;;;;;27.52;16.02;;;;;;;;;;4987598;28;20026;-76